Main page
METAR-TAF:

METAR-TAF

Airports :

Fairbanks International Airport

Fairbanks, Alaska, United States

latitude: 64-48-14N, longitude: 147-52-34W, elevation: 132 m

Current weather observation

The report was made 57 minutes ago, at 23:53 UTC
Calm wind
Temperature -23°C
Humidity 76%
Pressure 1014 hPa
Visibility: 16.1 km
Few clouds at a height of 10000 ft

METAR: PAFA 152353Z 00000KT 10SM FEW100 M23/M26 A2995 RMK AO2 SLP159 T12281261 11217 21272 56008 PNO

Time: 15:50 (00:50 UTC)

Forecast

The report was made 1 hour and 13 minutes ago, at 23:37 UTC
Forecast valid from 16 at 00 UTC to 17 at 06 UTC
Wind 3 kt from the Northeast
Visibility: 10 km
Few clouds at a height of 10000 ft

TAF: PAFA 152337Z 1600/1706 05003KT P6SM FEW100

Weather observations and forecasts of more than 4000 airports (METAR and TAF reports).

The available stations are represented by yellow and red dots on the map.

Hover mouse over dot to see the name of the station.

Then click to see weather observations and forecasts.

To change the map : click on the green buttons with a black cross to zoom in, on the green button with a dash to zoom out, or on the green arrows for adjacent maps.


METAR-TAF: